Time;durP1;ratioP1;P1;durP2;ratioP2;P2;SDS_P1;SDS_P2;PMS_P1;PMS_P2;Temp;Humidity;BMP_temperature;BMP_pressure;BME280_temperature;BME280_humidity;BME280_pressure;Samples;Min_cycle;Max_cycle;Signal;HPM_P1;HPM_P2
2023/02/09 00:01:07;;;;;;;22.73;15.02;;;-2.70;71.20;;;;;;5087367;28;20032;-60
2023/02/09 00:03:33;;;;;;;21.17;14.50;;;-2.70;71.10;;;;;;5083957;28;20044;-62
2023/02/09 00:06:00;;;;;;;20.50;14.15;;;-2.70;71.10;;;;;;5074870;28;20037;-50
2023/02/09 00:08:27;;;;;;;20.02;13.88;;;-2.70;71.00;;;;;;5096419;28;20126;-59
2023/02/09 00:10:53;;;;;;;20.45;13.68;;;-2.70;70.90;;;;;;5083764;28;20400;-51
2023/02/09 00:13:22;;;;;;;20.27;13.75;;;-2.70;70.90;;;;;;5090604;28;20036;-52
2023/02/09 00:15:52;;;;;;;21.75;14.77;;;-2.70;70.90;;;;;;5085116;28;20032;-62
2023/02/09 00:18:19;;;;;;;17.73;13.23;;;-2.60;71.10;;;;;;5087212;28;20024;-61
2023/02/09 00:20:45;;;;;;;21.08;13.98;;;-2.60;71.00;;;;;;5083338;28;20036;-55
2023/02/09 00:23:11;;;;;;;19.20;13.07;;;-2.60;71.00;;;;;;5087103;28;20500;-53
2023/02/09 00:25:38;;;;;;;20.95;14.77;;;-2.60;71.10;;;;;;5088123;28;20458;-53
2023/02/09 00:28:05;;;;;;;19.83;13.40;;;-2.60;71.20;;;;;;5071197;28;20031;-53
2023/02/09 00:30:30;;;;;;;20.20;14.25;;;-2.70;71.20;;;;;;5092108;28;20052;-53
2023/02/09 00:32:56;;;;;;;21.27;14.35;;;-2.70;71.30;;;;;;5096293;28;20059;-53
2023/02/09 00:35:22;;;;;;;19.73;13.65;;;-2.70;71.30;;;;;;5107499;28;20024;-51
2023/02/09 00:37:47;;;;;;;19.85;13.98;;;-2.70;71.20;;;;;;5094455;28;20028;-64
2023/02/09 00:40:13;;;;;;;18.20;12.93;;;-2.70;71.20;;;;;;5093389;28;20032;-60
2023/02/09 00:42:39;;;;;;;19.65;12.98;;;-2.70;71.20;;;;;;5077430;28;20074;-49
2023/02/09 00:45:05;;;;;;;20.55;13.48;;;-2.70;71.20;;;;;;5094916;28;20036;-53
2023/02/09 00:47:30;;;;;;;19.70;14.57;;;-2.70;71.10;;;;;;5088596;28;20028;-49
2023/02/09 00:49:56;;;;;;;21.63;14.65;;;-2.80;71.00;;;;;;5100585;28;20050;-49
2023/02/09 00:52:21;;;;;;;19.42;13.70;;;-2.80;71.10;;;;;;5097711;28;20034;-63
2023/02/09 00:54:47;;;;;;;21.20;14.13;;;-2.80;71.20;;;;;;5086219;28;20031;-62
2023/02/09 00:57:12;;;;;;;18.08;13.02;;;-2.80;71.20;;;;;;5089537;28;20055;-60
2023/02/09 00:59:39;;;;;;;18.58;12.73;;;-2.80;71.20;;;;;;5095087;28;20020;-60
2023/02/09 01:02:05;;;;;;;19.02;12.63;;;-2.80;71.10;;;;;;5083317;28;20039;-58
2023/02/09 01:04:32;;;;;;;21.38;15.60;;;-2.80;71.20;;;;;;5091549;28;20108;-60
2023/02/09 01:06:57;;;;;;;19.38;13.00;;;-2.80;71.10;;;;;;5093124;28;20405;-61
2023/02/09 01:09:23;;;;;;;19.13;13.18;;;-2.90;71.60;;;;;;5094674;28;20032;-61
2023/02/09 01:11:49;;;;;;;21.15;13.88;;;-2.80;71.10;;;;;;5088100;28;20479;-61
2023/02/09 01:14:16;;;;;;;17.80;13.15;;;-2.80;71.00;;;;;;5090501;28;20080;-61
2023/02/09 01:16:41;;;;;;;22.05;13.90;;;-2.80;71.00;;;;;;5073529;28;20031;-53
2023/02/09 01:19:09;;;;;;;20.48;13.70;;;-2.90;70.90;;;;;;5096375;28;20051;-50
2023/02/09 01:21:35;;;;;;;19.55;12.85;;;-2.90;70.90;;;;;;5091190;28;20519;-61
2023/02/09 01:24:01;;;;;;;17.67;13.57;;;-2.80;70.90;;;;;;5099804;28;20126;-60
2023/02/09 01:26:26;;;;;;;18.48;13.57;;;-2.80;70.90;;;;;;5091850;28;20039;-59
2023/02/09 01:28:53;;;;;;;20.77;13.95;;;-2.80;71.00;;;;;;5092781;28;20035;-60
2023/02/09 01:31:26;;;;;;;20.67;14.07;;;-2.80;70.90;;;;;;5092172;28;20024;-60
2023/02/09 01:33:53;;;;;;;20.60;13.77;;;-2.80;71.00;;;;;;5083911;28;20040;-59
2023/02/09 01:36:19;;;;;;;19.90;13.85;;;-2.80;71.00;;;;;;5096681;28;20020;-59
2023/02/09 01:38:45;;;;;;;18.73;14.48;;;-2.80;71.60;;;;;;5092285;28;20040;-60
2023/02/09 01:41:11;;;;;;;16.88;13.25;;;-2.80;71.00;;;;;;5092223;28;20035;-61
2023/02/09 01:43:50;;;;;;;18.13;13.77;;;-2.80;71.20;;;;;;5090798;28;20085;-61
2023/02/09 01:46:15;;;;;;;18.92;13.48;;;-2.80;71.20;;;;;;5091530;28;20081;-52
2023/02/09 01:48:41;;;;;;;21.40;14.85;;;-2.80;71.30;;;;;;5083080;28;20417;-50
2023/02/09 01:51:07;;;;;;;20.85;14.63;;;-2.80;71.20;;;;;;5090097;28;20028;-52
2023/02/09 01:53:33;;;;;;;22.00;15.60;;;-2.80;71.20;;;;;;5089041;28;20040;-54
2023/02/09 01:56:08;;;;;;;22.63;14.73;;;-2.90;71.20;;;;;;5091738;28;20111;-63
2023/02/09 01:58:34;;;;;;;21.45;14.50;;;-2.80;71.20;;;;;;5093568;28;20055;-61
2023/02/09 02:01:00;;;;;;;18.63;13.85;;;-2.80;71.20;;;;;;5089840;28;20032;-60
2023/02/09 02:03:27;;;;;;;20.52;13.88;;;-2.80;71.10;;;;;;5098242;28;20074;-60
2023/02/09 02:06:03;;;;;;;20.45;13.93;;;-2.80;71.10;;;;;;5105643;22;20057;-90
2023/02/09 02:08:47;;;;;;;19.35;14.18;;;-2.80;71.10;;;;;;5022507;28;20091;-91
2023/02/09 02:11:13;;;;;;;20.65;14.27;;;-2.80;71.20;;;;;;5019004;28;20039;-92
2023/02/09 02:13:39;;;;;;;19.13;14.05;;;-2.80;71.10;;;;;;5057007;28;20056;-91
2023/02/09 02:16:07;;;;;;;21.40;14.32;;;-2.80;71.20;;;;;;5053373;28;20040;-93
2023/02/09 02:18:45;;;;;;;23.02;15.02;;;-2.80;71.20;;;;;;5033786;28;20014;-92
2023/02/09 02:21:29;;;;;;;22.83;15.93;;;-2.80;71.30;;;;;;5047087;23;20143;-52
2023/02/09 02:24:13;;;;;;;19.35;13.32;;;-2.80;71.30;;;;;;5045586;28;20044;-61
2023/02/09 02:26:50;;;;;;;22.17;14.50;;;-2.80;71.40;;;;;;5035840;28;20057;-60
2023/02/09 02:29:24;;;;;;;21.95;14.57;;;-2.80;71.20;;;;;;5052375;28;20025;-60
2023/02/09 02:32:02;;;;;;;20.00;13.45;;;-2.80;71.30;;;;;;5046514;28;20029;-60
2023/02/09 02:34:48;;;;;;;20.73;14.15;;;-2.80;71.30;;;;;;5048565;28;20062;-61
2023/02/09 02:37:38;;;;;;;16.52;12.48;;;-2.80;71.30;;;;;;5040475;28;20033;-60
2023/02/09 02:40:22;;;;;;;21.20;14.88;;;-2.90;71.20;;;;;;5042583;28;20043;-59
2023/02/09 02:43:10;;;;;;;19.02;13.15;;;-2.90;71.30;;;;;;5046519;28;20033;-60
2023/02/09 02:45:44;;;;;;;19.75;13.10;;;-2.90;71.30;;;;;;5046072;28;20419;-60
2023/02/09 02:48:31;;;;;;;21.65;14.68;;;-2.90;71.40;;;;;;5044886;28;20025;-61
2023/02/09 02:51:07;;;;;;;18.95;13.85;;;-2.90;71.40;;;;;;5042450;28;20030;-61
2023/02/09 02:53:35;;;;;;;22.17;13.73;;;-2.90;71.40;;;;;;5042357;28;20037;-61
2023/02/09 02:56:15;;;;;;;24.42;15.20;;;-2.90;71.30;;;;;;5040965;28;20364;-61
2023/02/09 02:58:43;;;;;;;21.08;14.40;;;-2.90;71.30;;;;;;5050116;28;20053;-62
2023/02/09 03:01:14;;;;;;;19.80;13.70;;;-2.90;71.30;;;;;;5047023;28;20431;-60
2023/02/09 03:03:42;;;;;;;21.27;14.60;;;-2.90;71.30;;;;;;5045715;28;20071;-60
2023/02/09 03:06:09;;;;;;;20.88;13.75;;;-2.90;71.30;;;;;;5043555;28;21551;-60
2023/02/09 03:08:56;;;;;;;19.38;13.55;;;-3.00;71.30;;;;;;5039013;28;20045;-61
2023/02/09 03:11:26;;;;;;;18.65;13.57;;;-3.00;71.00;;;;;;5034910;28;20065;-59
2023/02/09 03:14:29;;;;;;;16.25;11.68;;;-3.00;71.20;;;;;;5040029;28;20033;-49
2023/02/09 03:17:17;;;;;;;21.23;13.40;;;-3.00;71.00;;;;;;5041956;28;20041;-48
2023/02/09 03:19:56;;;;;;;19.73;14.05;;;-3.00;71.20;;;;;;5045078;28;20446;-49
2023/02/09 03:22:46;;;;;;;20.73;14.95;;;-3.00;71.20;;;;;;5046212;28;20124;-61
2023/02/09 03:25:27;;;;;;;22.25;15.02;;;-2.90;71.10;;;;;;5047916;28;20466;-59
2023/02/09 03:28:02;;;;;;;21.63;16.00;;;-2.90;71.30;;;;;;5044024;28;20094;-61
2023/02/09 03:30:30;;;;;;;22.30;15.63;;;-2.80;71.10;;;;;;5044616;28;20033;-62
2023/02/09 03:32:56;;;;;;;21.73;15.57;;;-2.70;71.00;;;;;;5042987;28;20411;-61
2023/02/09 03:35:24;;;;;;;23.75;16.23;;;-2.60;70.50;;;;;;5045023;28;20029;-61
2023/02/09 03:37:50;;;;;;;23.88;15.88;;;-2.50;70.90;;;;;;5039485;28;20042;-62
2023/02/09 03:40:18;;;;;;;21.58;14.77;;;-2.40;69.90;;;;;;5043127;28;20025;-61
2023/02/09 03:42:44;;;;;;;21.15;14.07;;;-2.30;69.70;;;;;;5042371;28;20021;-52
2023/02/09 03:45:09;;;;;;;20.35;15.10;;;-2.20;69.30;;;;;;5045941;28;20041;-50
2023/02/09 03:47:35;;;;;;;21.92;15.55;;;-2.30;68.90;;;;;;5045001;28;20091;-60
2023/02/09 03:50:01;;;;;;;20.83;15.20;;;-2.30;68.90;;;;;;5048955;28;20056;-60
2023/02/09 03:52:26;;;;;;;21.38;14.98;;;-2.40;68.90;;;;;;5041980;28;20540;-58
2023/02/09 03:54:52;;;;;;;22.20;14.93;;;-2.40;69.00;;;;;;5044794;28;20107;-47
2023/02/09 03:57:18;;;;;;;22.38;15.20;;;-2.50;69.10;;;;;;5041809;28;20249;-61
2023/02/09 03:59:43;;;;;;;21.30;15.70;;;-2.50;69.20;;;;;;5047305;28;20115;-61
2023/02/09 04:02:09;;;;;;;23.75;16.67;;;-2.50;69.30;;;;;;5041538;28;20378;-62
2023/02/09 04:04:36;;;;;;;20.67;14.90;;;-2.50;69.00;;;;;;5047134;28;20048;-62
2023/02/09 04:07:02;;;;;;;22.20;16.10;;;-2.40;69.10;;;;;;5048381;28;20060;-62
2023/02/09 04:09:28;;;;;;;23.33;16.38;;;-2.40;69.10;;;;;;5048396;28;20033;-61
2023/02/09 04:11:54;;;;;;;21.92;15.15;;;-2.40;68.90;;;;;;5048396;28;20031;-61
2023/02/09 04:14:20;;;;;;;22.05;14.98;;;-2.40;68.70;;;;;;5044553;28;20025;-61
2023/02/09 04:16:46;;;;;;;22.48;16.65;;;-2.50;68.60;;;;;;5050480;28;20033;-60
2023/02/09 04:19:11;;;;;;;22.60;15.93;;;-2.60;68.60;;;;;;5049980;28;20048;-61
2023/02/09 04:21:38;;;;;;;21.83;15.65;;;-2.60;68.80;;;;;;5041964;28;20045;-60
2023/02/09 04:24:05;;;;;;;22.50;16.25;;;-2.60;68.90;;;;;;5045627;28;20120;-53
2023/02/09 04:26:31;;;;;;;24.55;16.20;;;-2.60;68.90;;;;;;5046282;28;21634;-52
2023/02/09 04:28:57;;;;;;;23.65;16.23;;;-2.60;69.00;;;;;;5042960;28;20086;-57
2023/02/09 04:31:22;;;;;;;22.15;15.50;;;-2.60;68.80;;;;;;5045829;28;20442;-49
2023/02/09 04:33:48;;;;;;;20.00;15.10;;;-2.60;68.80;;;;;;5043825;28;20112;-64
2023/02/09 04:36:14;;;;;;;20.02;14.70;;;-2.60;68.70;;;;;;5047416;28;20028;-63
2023/02/09 04:38:39;;;;;;;22.25;15.48;;;-2.50;68.60;;;;;;5049915;28;20115;-47
2023/02/09 04:41:05;;;;;;;20.92;15.52;;;-2.50;68.60;;;;;;5030556;28;20099;-49
2023/02/09 04:43:31;;;;;;;23.45;16.05;;;-2.50;68.60;;;;;;5044852;28;20038;-51
2023/02/09 04:45:58;;;;;;;24.45;17.02;;;-2.50;68.50;;;;;;5044681;28;20045;-49
2023/02/09 04:48:26;;;;;;;25.30;16.50;;;-2.40;68.40;;;;;;5042441;28;20041;-60
2023/02/09 04:50:52;;;;;;;24.45;16.95;;;-2.30;68.20;;;;;;5042418;28;20425;-60
2023/02/09 04:53:19;;;;;;;25.80;18.30;;;-2.30;68.00;;;;;;5049137;28;20045;-60
2023/02/09 04:55:46;;;;;;;28.30;18.90;;;-2.30;67.70;;;;;;5040152;28;20578;-60
2023/02/09 05:00:59;;;;;;;26.77;19.00;;;-2.20;67.40;;;;;;5044622;28;20031;-54
2023/02/09 05:03:25;;;;;;;29.17;20.25;;;-2.20;67.40;;;;;;5034133;28;20052;-54
2023/02/09 05:05:55;;;;;;;38.35;23.92;;;-2.20;67.20;;;;;;5042813;28;20020;-52
2023/02/09 05:08:21;;;;;;;32.13;22.55;;;-2.20;67.00;;;;;;5042295;28;20079;-50
2023/02/09 05:10:47;;;;;;;26.55;19.23;;;-2.20;67.00;;;;;;5043158;28;20025;-53
2023/02/09 05:13:13;;;;;;;29.38;18.92;;;-2.20;67.10;;;;;;5036452;28;20418;-61
2023/02/09 05:15:38;;;;;;;31.75;21.35;;;-2.20;67.00;;;;;;5045781;28;20064;-61
2023/02/09 05:18:04;;;;;;;34.38;23.60;;;-2.20;67.00;;;;;;5039222;28;20038;-61
2023/02/09 05:20:30;;;;;;;36.70;25.10;;;-2.20;66.90;;;;;;5051616;28;20025;-61
2023/02/09 05:22:55;;;;;;;32.78;25.25;;;-2.20;66.80;;;;;;5041892;28;20466;-59
2023/02/09 05:25:21;;;;;;;33.55;22.95;;;-2.10;66.80;;;;;;5037883;28;20025;-60
2023/02/09 05:27:47;;;;;;;35.25;24.50;;;-2.10;66.70;;;;;;5044935;28;20021;-49
2023/02/09 05:30:12;;;;;;;36.45;24.10;;;-2.10;66.60;;;;;;5045773;28;20033;-55
2023/02/09 05:32:38;;;;;;;31.50;21.25;;;-2.00;66.60;;;;;;5040539;28;20030;-59
2023/02/09 05:35:05;;;;;;;31.60;21.60;;;-2.00;66.60;;;;;;5046146;28;20052;-60
2023/02/09 05:37:31;;;;;;;25.17;18.77;;;-2.00;66.50;;;;;;5042397;28;20025;-59
2023/02/09 05:39:56;;;;;;;24.80;18.27;;;-1.90;66.60;;;;;;5050454;28;20383;-59
2023/02/09 05:42:22;;;;;;;24.92;17.55;;;-1.90;66.50;;;;;;5044314;28;20075;-63
2023/02/09 05:44:49;;;;;;;23.17;17.05;;;-1.80;66.50;;;;;;5047777;28;20041;-58
2023/02/09 05:47:17;;;;;;;24.40;17.90;;;-1.80;66.50;;;;;;5052412;28;20120;-59
2023/02/09 05:49:44;;;;;;;25.33;17.52;;;-1.80;66.50;;;;;;5041194;28;20017;-60
2023/02/09 05:52:11;;;;;;;25.27;16.65;;;-1.70;66.60;;;;;;5041364;28;20026;-60
2023/02/09 05:54:37;;;;;;;23.75;17.10;;;-1.70;66.60;;;;;;5047402;28;20041;-60
2023/02/09 05:57:04;;;;;;;21.95;16.58;;;-1.60;66.60;;;;;;5041039;28;20056;-60
2023/02/09 05:59:30;;;;;;;23.83;16.17;;;-1.60;66.80;;;;;;5041660;28;20380;-49
2023/02/09 06:01:55;;;;;;;25.38;17.38;;;-1.50;67.00;;;;;;5038530;28;20029;-52
2023/02/09 06:04:22;;;;;;;25.02;17.02;;;-1.30;66.90;;;;;;5037911;28;20076;-60
2023/02/09 06:06:47;;;;;;;23.10;16.52;;;-1.30;67.00;;;;;;5039739;28;20049;-59
2023/02/09 06:09:13;;;;;;;21.27;15.57;;;-1.20;66.80;;;;;;5041907;28;21871;-62
2023/02/09 06:11:39;;;;;;;21.80;15.32;;;-1.10;66.80;;;;;;5033693;28;20040;-63
2023/02/09 06:14:04;;;;;;;21.05;15.20;;;-1.00;66.80;;;;;;5046277;28;20371;-62
2023/02/09 06:16:30;;;;;;;23.20;15.95;;;-1.00;66.70;;;;;;5045444;28;20033;-62
2023/02/09 06:18:55;;;;;;;23.98;15.30;;;-0.90;66.90;;;;;;5047685;28;20021;-60
2023/02/09 06:21:22;;;;;;;27.23;17.85;;;-0.90;66.90;;;;;;5046555;28;20044;-59
2023/02/09 06:23:47;;;;;;;24.67;17.55;;;-0.80;67.10;;;;;;5048291;28;20036;-63
2023/02/09 06:26:15;;;;;;;23.58;18.02;;;-0.70;66.90;;;;;;5038676;28;20363;-62
2023/02/09 06:28:41;;;;;;;24.45;17.08;;;-0.60;66.70;;;;;;5043141;28;20040;-49
2023/02/09 06:31:07;;;;;;;25.90;17.92;;;-0.50;66.80;;;;;;5042752;28;20025;-53
2023/02/09 06:33:34;;;;;;;24.92;17.95;;;-0.40;66.60;;;;;;5042986;28;20387;-60
2023/02/09 06:36:00;;;;;;;25.00;17.60;;;-0.30;66.50;;;;;;5042659;28;20577;-60
2023/02/09 06:38:26;;;;;;;24.42;17.88;;;-0.10;66.30;;;;;;5037837;28;20486;-48
2023/02/09 06:40:51;;;;;;;25.05;17.75;;;0.00;65.90;;;;;;5045993;28;20038;-51
2023/02/09 06:43:17;;;;;;;25.75;18.83;;;0.00;65.70;;;;;;5043196;28;20463;-50
2023/02/09 06:45:43;;;;;;;24.85;17.77;;;0.10;65.80;;;;;;5038576;28;20158;-49
2023/02/09 06:48:09;;;;;;;26.70;20.33;;;0.10;65.70;;;;;;5042102;28;20396;-62
2023/02/09 06:50:37;;;;;;;28.38;19.55;;;0.30;65.60;;;;;;5032703;28;20067;-63
2023/02/09 06:53:03;;;;;;;25.75;19.02;;;0.30;65.30;;;;;;5041065;28;20709;-61
2023/02/09 06:55:29;;;;;;;26.50;18.75;;;0.40;65.10;;;;;;5034391;28;20021;-62
2023/02/09 06:57:55;;;;;;;25.50;19.25;;;0.50;64.90;;;;;;5032312;28;20035;-60
2023/02/09 07:00:21;;;;;;;27.65;19.45;;;0.60;64.70;;;;;;5029484;28;20029;-60
2023/02/09 07:02:47;;;;;;;30.23;20.00;;;0.70;64.50;;;;;;5023239;28;20021;-61
2023/02/09 07:05:14;;;;;;;27.38;18.95;;;0.70;64.30;;;;;;5030587;28;20075;-59
2023/02/09 07:07:41;;;;;;;28.50;19.17;;;0.80;64.00;;;;;;5037960;28;20083;-60
2023/02/09 07:10:08;;;;;;;25.05;18.23;;;0.90;63.80;;;;;;5036264;28;20033;-60
2023/02/09 07:12:34;;;;;;;25.85;18.48;;;0.90;63.50;;;;;;5032569;28;20037;-62
2023/02/09 07:15:00;;;;;;;23.42;17.27;;;0.80;63.00;;;;;;5033342;28;20095;-60
2023/02/09 07:17:30;;;;;;;27.65;19.50;;;0.80;62.80;;;;;;5011761;28;20715;-60
2023/02/09 07:19:56;;;;;;;27.45;18.25;;;0.60;62.60;;;;;;5028367;28;20033;-61
2023/02/09 07:22:24;;;;;;;26.63;17.70;;;0.50;62.80;;;;;;5030655;28;20053;-62
2023/02/09 07:24:50;;;;;;;22.98;17.50;;;0.30;62.90;;;;;;5013076;28;20033;-60
2023/02/09 07:27:16;;;;;;;23.77;17.17;;;0.20;63.20;;;;;;5032694;28;20179;-61
2023/02/09 07:29:42;;;;;;;25.75;17.75;;;0.20;63.30;;;;;;5028688;28;20060;-60
2023/02/09 07:32:08;;;;;;;22.83;16.10;;;0.10;63.50;;;;;;5029556;28;20144;-60
2023/02/09 07:34:34;;;;;;;21.27;16.13;;;0.10;63.70;;;;;;5035553;28;20542;-57
2023/02/09 07:37:00;;;;;;;23.23;17.02;;;0.00;63.80;;;;;;5028739;28;20032;-58
2023/02/09 07:39:26;;;;;;;24.52;17.08;;;0.00;63.90;;;;;;5035991;28;20033;-57
2023/02/09 07:41:52;;;;;;;24.63;18.15;;;0.00;64.00;;;;;;5027280;28;20039;-58
2023/02/09 07:44:18;;;;;;;27.02;18.95;;;0.00;64.20;;;;;;5028517;28;20036;-57
2023/02/09 07:46:43;;;;;;;27.05;18.95;;;-0.10;64.40;;;;;;5027374;28;20098;-60
2023/02/09 07:49:09;;;;;;;28.73;20.63;;;-0.10;64.50;;;;;;5028876;28;20044;-60
2023/02/09 07:51:35;;;;;;;23.88;16.98;;;-0.10;64.50;;;;;;5016964;28;20066;-59
2023/02/09 07:54:02;;;;;;;20.58;14.52;;;-0.10;64.60;;;;;;5021848;28;20091;-57
2023/02/09 07:56:28;;;;;;;17.67;13.02;;;-0.10;64.70;;;;;;5024448;28;20082;-58
2023/02/09 07:58:54;;;;;;;15.60;11.38;;;-0.10;65.00;;;;;;5031206;28;20336;-58
2023/02/09 08:01:20;;;;;;;17.80;11.65;;;0.00;65.30;;;;;;5026230;28;20033;-59
2023/02/09 08:03:48;;;;;;;16.83;12.32;;;0.00;65.40;;;;;;5026715;28;20467;-59
2023/02/09 08:06:17;;;;;;;16.65;12.00;;;0.00;65.50;;;;;;5026516;28;20095;-59
2023/02/09 08:08:44;;;;;;;22.92;13.88;;;0.00;65.80;;;;;;5010028;28;20037;-60
2023/02/09 08:11:10;;;;;;;18.88;13.18;;;0.00;65.90;;;;;;5021201;28;20033;-59
2023/02/09 08:13:39;;;;;;;18.83;12.98;;;0.00;66.00;;;;;;5018906;28;20044;-60
2023/02/09 08:16:08;;;;;;;19.58;12.70;;;0.00;66.10;;;;;;5016066;28;20033;-60
2023/02/09 08:18:38;;;;;;;16.40;12.25;;;0.00;66.20;;;;;;5006858;28;21489;-60
2023/02/09 08:21:07;;;;;;;20.40;12.85;;;0.00;66.40;;;;;;5016264;28;20422;-61
2023/02/09 08:23:34;;;;;;;16.23;11.73;;;0.00;66.50;;;;;;5016043;28;20051;-60
2023/02/09 08:26:06;;;;;;;18.38;12.48;;;0.10;66.50;;;;;;4992626;28;20029;-62
2023/02/09 08:28:32;;;;;;;16.55;12.10;;;0.10;66.50;;;;;;5013953;28;20040;-60
2023/02/09 08:30:58;;;;;;;15.55;11.35;;;0.10;66.40;;;;;;5020880;28;20642;-60
2023/02/09 08:33:24;;;;;;;18.60;11.80;;;0.10;66.60;;;;;;4999376;28;20063;-60
2023/02/09 08:35:51;;;;;;;18.05;12.15;;;0.10;66.60;;;;;;5012130;28;20129;-62
2023/02/09 08:38:18;;;;;;;16.02;11.55;;;0.10;66.70;;;;;;5019373;28;20152;-61
2023/02/09 08:40:44;;;;;;;15.52;10.65;;;0.10;66.60;;;;;;5023670;28;20036;-59
2023/02/09 08:43:11;;;;;;;17.40;10.93;;;0.20;66.60;;;;;;5018285;28;20040;-60
2023/02/09 08:45:38;;;;;;;13.43;9.50;;;0.20;66.40;;;;;;5021053;28;20322;-61
2023/02/09 08:48:05;;;;;;;14.45;9.77;;;0.30;66.10;;;;;;5014532;28;20056;-63
2023/02/09 08:50:32;;;;;;;12.98;9.18;;;0.30;65.60;;;;;;5013159;28;20809;-63
2023/02/09 08:52:58;;;;;;;14.13;9.35;;;0.30;65.10;;;;;;5015032;28;20037;-59
2023/02/09 08:55:24;;;;;;;13.60;9.90;;;0.30;65.10;;;;;;5022798;28;20529;-61
2023/02/09 08:57:50;;;;;;;12.55;8.95;;;0.40;65.10;;;;;;5024320;28;20101;-60
2023/02/09 09:00:16;;;;;;;11.75;8.73;;;0.40;64.90;;;;;;5011036;28;20656;-61
2023/02/09 09:02:42;;;;;;;13.02;9.30;;;0.40;64.80;;;;;;5017967;28;21104;-61
2023/02/09 09:05:07;;;;;;;14.57;9.85;;;0.50;64.70;;;;;;5022714;28;20118;-61
2023/02/09 09:07:33;;;;;;;13.32;9.73;;;0.50;64.60;;;;;;5019853;28;20033;-61
2023/02/09 09:09:59;;;;;;;14.70;9.93;;;0.60;64.70;;;;;;5014682;28;20041;-59
2023/02/09 09:12:24;;;;;;;14.70;10.93;;;0.60;64.60;;;;;;5019260;28;20048;-60
2023/02/09 09:14:50;;;;;;;13.55;10.15;;;0.70;64.70;;;;;;5021671;28;20037;-60
2023/02/09 09:17:16;;;;;;;14.98;9.93;;;0.70;64.90;;;;;;5017370;28;20463;-60
2023/02/09 09:19:41;;;;;;;13.50;10.60;;;0.80;65.00;;;;;;5023716;28;20122;-59
2023/02/09 09:22:07;;;;;;;16.17;11.57;;;0.80;65.00;;;;;;5019311;28;20052;-60
2023/02/09 09:24:39;;;;;;;16.83;11.80;;;0.90;65.20;;;;;;5019555;28;20045;-60
2023/02/09 09:27:05;;;;;;;;;;;0.90;65.30;;;;;;5021800;28;20032;-61
2023/02/09 09:29:33;;;;;;;14.65;9.85;;;0.90;65.40;;;;;;5011500;28;19927;-60
2023/02/09 09:31:59;;;;;;;14.40;11.30;;;1.00;65.60;;;;;;5009491;28;20048;-60
2023/02/09 09:34:24;;;;;;;16.02;11.15;;;1.00;65.40;;;;;;5009530;28;20037;-60
2023/02/09 09:36:50;;;;;;;14.35;11.07;;;1.10;65.50;;;;;;5012156;28;20372;-61
2023/02/09 09:39:17;;;;;;;15.07;10.77;;;1.10;66.00;;;;;;5017018;28;20067;-60
2023/02/09 09:41:46;;;;;;;13.98;10.07;;;1.10;65.20;;;;;;5018496;28;20033;-61
2023/02/09 09:44:19;;;;;;;16.50;10.63;;;1.20;65.20;;;;;;5013873;28;20368;-61
2023/02/09 09:46:50;;;;;;;15.77;10.73;;;1.20;65.10;;;;;;5011013;28;20037;-61
2023/02/09 09:49:25;;;;;;;15.75;10.95;;;1.20;65.00;;;;;;5021038;28;20029;-60
2023/02/09 09:52:31;;;;;;;18.30;11.70;;;1.20;65.70;;;;;;5021032;28;20041;-60
2023/02/09 09:54:58;;;;;;;15.88;11.65;;;1.20;65.00;;;;;;5017738;28;20046;-61
2023/02/09 09:57:27;;;;;;;17.73;11.50;;;1.20;65.00;;;;;;5012745;28;20112;-60
2023/02/09 09:59:54;;;;;;;17.35;12.25;;;1.20;65.20;;;;;;5017552;28;20033;-60
2023/02/09 10:02:33;;;;;;;16.08;11.90;;;1.20;65.30;;;;;;5018991;28;20057;-61
2023/02/09 10:05:24;;;;;;;17.52;12.18;;;1.30;65.30;;;;;;5015240;28;20402;-60
2023/02/09 10:08:09;;;;;;;13.27;9.85;;;1.30;66.10;;;;;;5018168;28;20036;-60
2023/02/09 10:10:35;;;;;;;14.57;11.13;;;1.30;65.40;;;;;;5025639;28;20029;-61
2023/02/09 10:13:06;;;;;;;13.20;10.75;;;1.30;65.40;;;;;;5012784;28;22079;-59
2023/02/09 10:15:35;;;;;;;16.13;11.05;;;1.30;65.20;;;;;;5016312;28;20029;-61
2023/02/09 10:18:00;;;;;;;15.68;10.55;;;1.40;65.20;;;;;;5013455;28;20168;-61
2023/02/09 10:21:09;;;;;;;16.77;11.45;;;1.40;65.40;;;;;;5022147;28;23476;-60
2023/02/09 10:23:35;;;;;;;16.38;10.50;;;1.50;65.30;;;;;;5020086;28;20462;-61
2023/02/09 10:26:14;;;;;;;15.00;10.23;;;1.40;65.20;;;;;;5020427;28;20033;-61
2023/02/09 10:28:45;;;;;;;14.70;10.25;;;1.50;65.30;;;;;;5019449;28;20040;-61
2023/02/09 10:31:28;;;;;;;16.05;10.88;;;1.50;65.30;;;;;;5022326;28;20051;-61
2023/02/09 10:34:06;;;;;;;13.70;10.40;;;1.50;65.20;;;;;;5027329;28;20045;-60
2023/02/09 10:36:35;;;;;;;15.38;10.80;;;1.60;65.10;;;;;;5019703;28;20037;-61
2023/02/09 10:39:18;;;;;;;14.57;10.27;;;1.60;65.00;;;;;;5018352;28;20033;-60
2023/02/09 10:41:47;;;;;;;13.43;10.02;;;1.60;64.80;;;;;;5022416;28;20102;-59
2023/02/09 10:44:34;;;;;;;13.77;9.93;;;1.70;64.80;;;;;;5015543;28;20266;-58
2023/02/09 10:47:17;;;;;;;13.70;10.15;;;1.80;64.90;;;;;;5011860;28;20056;-59
2023/02/09 10:49:49;;;;;;;13.60;9.80;;;1.80;64.50;;;;;;5012957;28;20032;-60
2023/02/09 10:52:18;;;;;;;13.50;10.07;;;1.80;64.40;;;;;;5007748;28;20040;-60
2023/02/09 10:54:55;;;;;;;14.93;10.32;;;1.90;64.40;;;;;;4991008;28;20041;-60
2023/02/09 10:57:23;;;;;;;14.43;10.02;;;2.00;64.60;;;;;;5011711;28;20029;-61
2023/02/09 10:59:55;;;;;;;14.77;9.85;;;2.00;64.20;;;;;;5018835;28;20132;-60
2023/02/09 11:02:40;;;;;;;13.07;8.77;;;2.10;63.70;;;;;;5000949;28;20071;-63
2023/02/09 11:05:20;;;;;;;13.82;9.57;;;2.20;63.50;;;;;;5016482;28;20040;-60
2023/02/09 11:08:05;;;;;;;13.02;10.23;;;2.30;63.30;;;;;;5024748;28;20052;-60
2023/02/09 11:10:37;;;;;;;13.35;10.02;;;2.30;63.10;;;;;;5013886;28;20056;-59
2023/02/09 11:13:17;;;;;;;15.32;10.40;;;2.40;63.00;;;;;;4992944;28;20056;-63
2023/02/09 11:16:09;;;;;;;15.50;10.15;;;2.40;62.80;;;;;;4999397;28;20041;-61
2023/02/09 11:18:35;;;;;;;15.43;10.20;;;2.40;62.70;;;;;;4993355;28;20585;-58
2023/02/09 11:21:28;;;;;;;14.32;10.13;;;2.50;62.70;;;;;;5009582;28;20125;-60
2023/02/09 11:24:09;;;;;;;17.45;10.82;;;2.50;62.80;;;;;;5018917;28;20164;-60
2023/02/09 11:26:57;;;;;;;15.02;10.75;;;2.50;62.50;;;;;;5018170;28;20429;-60
2023/02/09 11:29:42;;;;;;;14.43;10.55;;;2.50;62.30;;;;;;5020357;28;20033;-60
2023/02/09 11:32:19;;;;;;;14.32;10.48;;;2.50;62.20;;;;;;5020983;28;20463;-60
2023/02/09 11:35:09;;;;;;;16.10;10.88;;;2.50;62.00;;;;;;5011904;28;20463;-61
2023/02/09 11:37:46;;;;;;;14.70;9.98;;;2.50;62.00;;;;;;4995892;28;20517;-59
2023/02/09 11:40:29;;;;;;;12.35;9.20;;;2.50;62.00;;;;;;5016303;28;20932;-59
2023/02/09 11:43:22;;;;;;;13.07;9.48;;;2.50;61.90;;;;;;5021511;28;20693;-60
2023/02/09 11:45:55;;;;;;;14.20;10.40;;;2.50;61.70;;;;;;5023597;28;20037;-60
2023/02/09 11:48:24;;;;;;;14.35;9.57;;;2.50;61.80;;;;;;5027659;28;20178;-60
2023/02/09 11:51:16;;;;;;;15.23;10.77;;;2.50;61.70;;;;;;5017828;28;20034;-60
2023/02/09 11:53:59;;;;;;;14.98;10.93;;;2.60;61.60;;;;;;5013621;28;20025;-60
2023/02/09 11:56:26;;;;;;;13.57;9.95;;;2.60;61.80;;;;;;5011197;28;20037;-59
2023/02/09 11:59:11;;;;;;;16.27;9.75;;;2.60;61.90;;;;;;5015926;28;20029;-61
2023/02/09 12:01:44;;;;;;;13.77;9.82;;;2.60;61.40;;;;;;5019360;28;20044;-59
2023/02/09 12:04:38;;;;;;;11.32;8.23;;;2.60;61.10;;;;;;5017249;28;20167;-59
2023/02/09 12:07:19;;;;;;;10.98;8.20;;;2.60;61.00;;;;;;5001630;28;20028;-60
2023/02/09 12:09:54;;;;;;;9.07;6.60;;;2.60;61.00;;;;;;5016306;28;20067;-60
2023/02/09 12:12:29;;;;;;;8.32;6.03;;;2.60;61.10;;;;;;5015818;28;20140;-60
2023/02/09 12:14:59;;;;;;;8.43;6.38;;;2.60;60.90;;;;;;5020723;28;20620;-60
2023/02/09 12:17:24;;;;;;;8.88;6.40;;;2.60;61.00;;;;;;4987929;28;20037;-61
2023/02/09 12:19:59;;;;;;;8.38;6.20;;;2.60;60.90;;;;;;5024397;28;20033;-57
2023/02/09 12:22:34;;;;;;;7.22;5.80;;;2.70;60.70;;;;;;5022513;28;20049;-58
2023/02/09 12:25:19;;;;;;;7.68;5.70;;;2.70;60.40;;;;;;5022903;28;20449;-60
2023/02/09 12:28:07;;;;;;;8.88;6.15;;;2.70;60.20;;;;;;5017495;28;20048;-60
2023/02/09 12:30:41;;;;;;;6.45;4.82;;;2.70;60.10;;;;;;5012356;28;20036;-58
2023/02/09 12:33:22;;;;;;;6.63;5.28;;;2.70;60.10;;;;;;5014244;28;20029;-59
2023/02/09 12:36:11;;;;;;;6.73;4.83;;;2.70;60.00;;;;;;5014396;28;20029;-59
2023/02/09 12:38:49;;;;;;;6.25;4.47;;;2.70;59.90;;;;;;5011746;28;20282;-59
2023/02/09 12:41:41;;;;;;;6.63;4.88;;;2.80;60.10;;;;;;5018449;28;20293;-61
2023/02/09 12:44:09;;;;;;;;;;;2.80;59.80;;;;;;4991037;28;20059;-59
2023/02/09 12:46:44;;;;;;;6.90;5.05;;;2.70;59.90;;;;;;5022283;28;19916;-60
2023/02/09 12:49:12;;;;;;;7.55;5.20;;;2.80;60.30;;;;;;5026566;28;20136;-61
2023/02/09 12:51:53;;;;;;;9.18;5.82;;;2.80;60.50;;;;;;5017451;28;20334;-59